Time;durP1;ratioP1;P1;durP2;ratioP2;P2;SDS_P1;SDS_P2;PMS_P1;PMS_P2;Temp;Humidity;BMP_temperature;BMP_pressure;BME280_temperature;BME280_humidity;BME280_pressure;Samples;Min_cycle;Max_cycle;Signal;HPM_P1;HPM_P2
2023/12/03 00:00:19;;;;;;;;;;;;;;;18.09;62.62;98089.00;2089669;28;19929;-66
2023/12/03 00:01:20;;;;;;;;;;;;;;;18.08;62.53;98083.84;2089534;28;19933;-66
2023/12/03 00:02:22;;;;;;;;;;;;;;;18.07;62.57;98088.38;2090419;28;19932;-64
2023/12/03 00:03:23;;;;;;;;;;;;;;;18.08;63.05;98092.72;2087797;28;20448;-66
2023/12/03 00:04:25;;;;;;;;;;;;;;;18.08;62.75;98094.59;2089043;28;19936;-66
2023/12/03 00:05:26;;;;;;;;;;;;;;;18.06;62.82;98091.28;2090917;28;20510;-65
2023/12/03 00:06:29;;;;;;;;;;;;;;;18.05;62.88;98085.09;2089095;28;19933;-65
2023/12/03 00:07:31;;;;;;;;;;;;;;;18.04;63.06;98083.44;2087391;28;19936;-65
2023/12/03 00:08:32;;;;;;;;;;;;;;;18.05;63.08;98087.78;2086787;28;19932;-65
2023/12/03 00:09:33;;;;;;;;;;;;;;;18.06;62.82;98085.94;2090922;28;19929;-64
2023/12/03 00:10:35;;;;;;;;;;;;;;;18.05;63.23;98082.44;2088873;28;19928;-65
2023/12/03 00:11:36;;;;;;;;;;;;;;;18.05;62.97;98086.94;2088266;28;19933;-65
2023/12/03 00:12:38;;;;;;;;;;;;;;;18.04;63.08;98080.75;2089609;28;19932;-65
2023/12/03 00:13:40;;;;;;;;;;;;;;;18.03;63.34;98084.50;2089073;28;19932;-64
2023/12/03 00:14:41;;;;;;;;;;;;;;;18.05;63.53;98085.09;2091196;28;21937;-65
2023/12/03 00:15:42;;;;;;;;;;;;;;;18.04;63.21;98086.13;2088927;28;19971;-65
2023/12/03 00:16:43;;;;;;;;;;;;;;;18.04;63.59;98085.31;2089908;28;19931;-66
2023/12/03 00:17:44;;;;;;;;;;;;;;;18.04;63.48;98090.66;2088425;28;19932;-65
2023/12/03 00:18:45;;;;;;;;;;;;;;;18.05;63.45;98086.94;2088812;28;20304;-65
2023/12/03 00:19:47;;;;;;;;;;;;;;;18.05;63.54;98084.25;2091050;28;19928;-65
2023/12/03 00:20:47;;;;;;;;;;;;;;;18.04;63.43;98094.19;2089123;28;20409;-65
2023/12/03 00:21:50;;;;;;;;;;;;;;;18.05;63.42;98095.00;2089669;28;19929;-65
2023/12/03 00:22:51;;;;;;;;;;;;;;;18.05;63.33;98095.84;2089385;28;21666;-64
2023/12/03 00:23:52;;;;;;;;;;;;;;;18.05;63.61;98101.22;2088379;28;19964;-63
2023/12/03 00:24:53;;;;;;;;;;;;;;;18.05;63.39;98093.16;2087900;28;19933;-63
2023/12/03 00:25:54;;;;;;;;;;;;;;;18.06;63.41;98102.03;2089424;28;20679;-64
2023/12/03 00:26:56;;;;;;;;;;;;;;;18.04;63.43;98099.53;2086336;28;19928;-63
2023/12/03 00:27:56;;;;;;;;;;;;;;;18.05;63.55;98105.72;2087991;28;19928;-64
2023/12/03 00:28:58;;;;;;;;;;;;;;;18.05;63.29;98106.56;2085205;28;20045;-63
2023/12/03 00:29:59;;;;;;;;;;;;;;;18.05;63.62;98103.91;2090959;28;19928;-65
2023/12/03 00:30:59;;;;;;;;;;;;;;;18.05;63.44;98108.41;2088903;28;19994;-63
2023/12/03 00:32:01;;;;;;;;;;;;;;;18.06;63.54;98108.22;2087415;28;20013;-64
2023/12/03 00:33:02;;;;;;;;;;;;;;;18.07;63.55;98106.34;2087410;28;19935;-63
2023/12/03 00:34:04;;;;;;;;;;;;;;;18.05;63.62;98114.63;2088346;28;20399;-65
2023/12/03 00:35:05;;;;;;;;;;;;;;;18.07;63.66;98114.41;2087978;28;20062;-65
2023/12/03 00:36:07;;;;;;;;;;;;;;;18.06;63.79;98113.59;2088379;28;20351;-65
2023/12/03 00:37:10;;;;;;;;;;;;;;;18.07;63.71;98109.84;2088534;28;19982;-64
2023/12/03 00:38:12;;;;;;;;;;;;;;;18.07;63.87;98111.72;2088444;28;20408;-65
2023/12/03 00:39:13;;;;;;;;;;;;;;;18.05;63.77;98106.56;2088879;28;19978;-65
2023/12/03 00:40:15;;;;;;;;;;;;;;;18.06;63.68;98110.06;2087929;28;19924;-67
2023/12/03 00:41:16;;;;;;;;;;;;;;;18.06;63.56;98108.22;2084410;28;20419;-63
2023/12/03 00:42:17;;;;;;;;;;;;;;;18.05;63.74;98101.22;2088036;28;20412;-64
2023/12/03 00:43:19;;;;;;;;;;;;;;;18.06;63.77;98100.16;2087586;28;19924;-63
2023/12/03 00:44:20;;;;;;;;;;;;;;;18.07;63.85;98104.47;2087669;28;19939;-65
2023/12/03 00:45:22;;;;;;;;;;;;;;;18.06;63.74;98096.66;2088363;28;19962;-64
2023/12/03 00:46:23;;;;;;;;;;;;;;;18.05;63.75;98095.84;2087778;28;20564;-63
2023/12/03 00:47:24;;;;;;;;;;;;;;;18.06;63.88;98096.66;2088854;28;20047;-62
2023/12/03 00:48:25;;;;;;;;;;;;;;;18.04;63.81;98094.19;2085098;28;19952;-62
2023/12/03 00:49:27;;;;;;;;;;;;;;;18.07;63.87;98099.13;2088428;28;20029;-63
2023/12/03 00:50:27;;;;;;;;;;;;;;;18.07;63.91;98099.13;2087741;28;19924;-63
2023/12/03 00:51:29;;;;;;;;;;;;;;;18.08;63.80;98097.28;2090408;28;19967;-64
2023/12/03 00:52:31;;;;;;;;;;;;;;;18.06;63.91;98105.53;2085826;28;19936;-64
2023/12/03 00:53:33;;;;;;;;;;;;;;;18.05;63.88;98103.03;2089160;28;19925;-63
2023/12/03 00:54:33;;;;;;;;;;;;;;;18.05;63.58;98103.91;2088212;28;19928;-63
2023/12/03 00:55:35;;;;;;;;;;;;;;;18.04;64.03;98104.09;2089870;28;19955;-65
2023/12/03 00:56:35;;;;;;;;;;;;;;;18.05;64.16;98111.09;2088039;28;20005;-63
2023/12/03 00:57:37;;;;;;;;;;;;;;;18.05;64.00;98114.63;2087587;28;20303;-62
2023/12/03 00:58:38;;;;;;;;;;;;;;;18.03;63.63;98114.00;2086631;28;20930;-62
2023/12/03 00:59:40;;;;;;;;;;;;;;;18.04;64.12;98107.59;2089030;28;19928;-62
2023/12/03 01:00:40;;;;;;;;;;;;;;;18.03;64.13;98108.63;2086980;28;20436;-62
2023/12/03 01:01:42;;;;;;;;;;;;;;;18.04;64.08;98117.50;2088702;28;20002;-64
2023/12/03 01:02:42;;;;;;;;;;;;;;;18.04;63.94;98118.31;2088656;28;19929;-64
2023/12/03 01:03:44;;;;;;;;;;;;;;;18.02;64.23;98109.66;2087704;28;20866;-64
2023/12/03 01:04:45;;;;;;;;;;;;;;;18.03;64.17;98105.13;2088701;28;19928;-63
2023/12/03 01:05:45;;;;;;;;;;;;;;;18.02;64.22;98098.91;2085762;28;19925;-63
2023/12/03 01:06:47;;;;;;;;;;;;;;;18.02;64.07;98101.59;2085441;28;20475;-64
2023/12/03 01:07:49;;;;;;;;;;;;;;;18.00;64.09;98102.88;2088538;28;19928;-63
2023/12/03 01:08:51;;;;;;;;;;;;;;;18.00;64.29;98109.06;2086249;28;19928;-65
2023/12/03 01:09:51;;;;;;;;;;;;;;;17.99;64.41;98107.41;2088050;28;19924;-64
2023/12/03 01:10:52;;;;;;;;;;;;;;;18.00;64.21;98108.25;2088410;28;20061;-65
2023/12/03 01:11:56;;;;;;;;;;;;;;;18.00;64.37;98114.44;2086812;28;20383;-66
2023/12/03 01:12:56;;;;;;;;;;;;;;;17.99;64.04;98106.59;2076960;28;19928;-64
2023/12/03 01:13:58;;;;;;;;;;;;;;;17.98;64.41;98108.44;2089344;28;20395;-65
2023/12/03 01:14:59;;;;;;;;;;;;;;;17.99;64.18;98117.31;2087684;28;19928;-64
2023/12/03 01:16:01;;;;;;;;;;;;;;;17.97;64.50;98109.50;2090544;28;20009;-65
2023/12/03 01:17:01;;;;;;;;;;;;;;;17.98;64.32;98115.69;2085935;28;20380;-64
2023/12/03 01:18:03;;;;;;;;;;;;;;;17.95;64.41;98116.94;2090544;28;19939;-64
2023/12/03 01:19:04;;;;;;;;;;;;;;;17.94;64.72;98115.28;2089217;28;19928;-65
2023/12/03 01:20:07;;;;;;;;;;;;;;;17.94;64.69;98117.97;2088703;28;19970;-65
2023/12/03 01:21:08;;;;;;;;;;;;;;;17.96;64.52;98115.06;2088990;28;19935;-65
2023/12/03 01:22:10;;;;;;;;;;;;;;;17.96;64.83;98123.09;2089682;28;19967;-65
2023/12/03 01:23:12;;;;;;;;;;;;;;;17.96;64.53;98126.63;2087244;28;19967;-64
2023/12/03 01:24:13;;;;;;;;;;;;;;;17.96;64.58;98123.09;2088450;28;19929;-65
2023/12/03 01:25:15;;;;;;;;;;;;;;;17.97;64.78;98130.09;2089648;28;20553;-64
2023/12/03 01:26:16;;;;;;;;;;;;;;;17.95;64.78;98127.66;2089708;28;19973;-63
2023/12/03 01:27:18;;;;;;;;;;;;;;;17.96;64.88;98131.97;2088892;28;20383;-63
2023/12/03 01:28:20;;;;;;;;;;;;;;;17.93;64.70;98124.34;2087059;28;19929;-64
2023/12/03 01:29:21;;;;;;;;;;;;;;;17.91;64.99;98131.78;2089052;28;19932;-64
2023/12/03 01:30:22;;;;;;;;;;;;;;;17.93;65.10;98126.22;2088146;28;19976;-64
2023/12/03 01:31:23;;;;;;;;;;;;;;;17.92;65.00;98130.78;2089402;28;19929;-64
2023/12/03 01:32:25;;;;;;;;;;;;;;;17.93;65.01;98127.03;2088187;28;19928;-64
2023/12/03 01:33:25;;;;;;;;;;;;;;;17.94;64.73;98127.84;2088930;28;19972;-62
2023/12/03 01:34:27;;;;;;;;;;;;;;;17.94;65.06;98128.69;2087357;28;20446;-65
2023/12/03 01:35:28;;;;;;;;;;;;;;;17.94;64.84;98128.69;2087700;28;19929;-62
2023/12/03 01:36:29;;;;;;;;;;;;;;;17.93;65.09;98129.72;2085472;28;19928;-62
2023/12/03 01:37:30;;;;;;;;;;;;;;;17.94;65.07;98130.53;2089943;28;19932;-64
2023/12/03 01:38:33;;;;;;;;;;;;;;;17.91;65.20;98137.16;2088479;28;19935;-64
2023/12/03 01:39:34;;;;;;;;;;;;;;;17.92;65.05;98135.31;2088255;28;19977;-64
2023/12/03 01:40:35;;;;;;;;;;;;;;;17.91;65.16;98131.78;2088601;28;19932;-63
2023/12/03 01:41:36;;;;;;;;;;;;;;;17.92;65.15;98122.72;2088332;28;19940;-64
2023/12/03 01:42:38;;;;;;;;;;;;;;;17.90;65.30;98129.31;2086206;28;20388;-63
2023/12/03 01:43:46;;;;;;;;;;;;;;;17.87;65.32;98127.88;2085476;28;19929;-63
2023/12/03 01:44:48;;;;;;;;;;;;;;;17.89;65.38;98127.69;2086926;28;20468;-62
2023/12/03 01:45:48;;;;;;;;;;;;;;;17.89;65.18;98125.81;2076809;28;20043;-65
2023/12/03 01:46:50;;;;;;;;;;;;;;;17.89;65.55;98128.50;2087702;28;20451;-61
2023/12/03 01:47:51;;;;;;;;;;;;;;;17.89;65.73;98116.97;2087126;28;19935;-62
2023/12/03 01:48:52;;;;;;;;;;;;;;;17.89;65.58;98125.81;2088063;28;19982;-64
2023/12/03 01:49:53;;;;;;;;;;;;;;;17.92;65.46;98127.25;2088389;28;19924;-64
2023/12/03 01:50:55;;;;;;;;;;;;;;;17.91;65.55;98122.91;2085706;28;19983;-64
2023/12/03 01:51:56;;;;;;;;;;;;;;;17.90;65.43;98129.31;2089233;28;20417;-64
2023/12/03 01:52:58;;;;;;;;;;;;;;;17.88;65.62;98131.38;2081400;28;19936;-64
2023/12/03 01:54:00;;;;;;;;;;;;;;;17.90;65.58;98129.31;2085100;28;20298;-64
2023/12/03 01:55:03;;;;;;;;;;;;;;;17.88;65.38;98121.47;2089603;28;19935;-64
2023/12/03 01:56:04;;;;;;;;;;;;;;;17.88;65.90;98134.88;2087828;28;19933;-63
2023/12/03 01:57:06;;;;;;;;;;;;;;;17.88;65.55;98132.22;2086020;28;19932;-64
2023/12/03 01:58:07;;;;;;;;;;;;;;;17.89;65.61;98133.88;2090149;28;20020;-63
2023/12/03 01:59:09;;;;;;;;;;;;;;;17.88;65.81;98137.56;2087900;28;20376;-62
2023/12/03 02:00:10;;;;;;;;;;;;;;;17.90;65.56;98142.75;2090815;28;19935;-62
2023/12/03 02:01:13;;;;;;;;;;;;;;;17.90;65.74;98146.25;2089940;28;19932;-64
2023/12/03 02:02:14;;;;;;;;;;;;;;;17.90;65.92;98148.94;2087915;28;19960;-64
2023/12/03 02:03:16;;;;;;;;;;;;;;;17.89;65.74;98149.97;2087980;28;19932;-65
2023/12/03 02:04:17;;;;;;;;;;;;;;;17.88;65.84;98151.00;2087373;28;19989;-64
2023/12/03 02:05:19;;;;;;;;;;;;;;;17.86;65.49;98151.22;2086652;28;20391;-63
2023/12/03 02:06:20;;;;;;;;;;;;;;;17.86;65.84;98151.22;2086075;28;19939;-63
2023/12/03 02:07:22;;;;;;;;;;;;;;;17.89;65.70;98158.03;2088341;28;19979;-63
2023/12/03 02:08:23;;;;;;;;;;;;;;;17.86;65.94;98151.22;2086102;28;19967;-63
2023/12/03 02:09:26;;;;;;;;;;;;;;;17.87;65.66;98157.41;2089830;28;19935;-64
2023/12/03 02:10:27;;;;;;;;;;;;;;;17.85;65.69;98159.47;2087387;28;19933;-63
2023/12/03 02:11:29;;;;;;;;;;;;;;;17.85;65.79;98162.13;2088370;28;19978;-63
2023/12/03 02:12:29;;;;;;;;;;;;;;;17.82;66.00;98160.69;2088984;28;19929;-64
2023/12/03 02:13:33;;;;;;;;;;;;;;;17.78;65.72;98161.31;2087128;28;20052;-65
2023/12/03 02:14:33;;;;;;;;;;;;;;;17.81;65.83;98161.75;2087949;28;20012;-63
2023/12/03 02:15:36;;;;;;;;;;;;;;;17.82;66.15;98170.63;2088233;28;19939;-65
2023/12/03 02:16:36;;;;;;;;;;;;;;;17.79;66.08;98171.03;2085394;28;19966;-63
2023/12/03 02:17:38;;;;;;;;;;;;;;;17.81;66.18;98166.28;2086282;28;19932;-65
2023/12/03 02:18:39;;;;;;;;;;;;;;;17.78;66.40;98177.41;2088430;28;20712;-64
2023/12/03 02:19:40;;;;;;;;;;;;;;;17.75;65.88;98169.78;2091381;28;19936;-64
2023/12/03 02:20:41;;;;;;;;;;;;;;;17.74;65.74;98168.13;2089051;28;19954;-64
2023/12/03 02:21:43;;;;;;;;;;;;;;;17.72;66.45;98170.19;2086915;28;19928;-65
2023/12/03 02:22:58;;;;;;;;;;;;;;;17.76;65.92;98164.19;2087713;28;19988;-64
2023/12/03 02:24:00;;;;;;;;;;;;;;;17.73;66.29;98167.28;2089440;28;20338;-64
2023/12/03 02:25:01;;;;;;;;;;;;;;;17.76;66.14;98179.47;2091288;28;19940;-64
2023/12/03 02:26:03;;;;;;;;;;;;;;;17.70;66.14;98172.25;2089955;28;19964;-64
2023/12/03 02:27:04;;;;;;;;;;;;;;;17.72;66.27;98179.06;2090383;28;19932;-65
2023/12/03 02:28:05;;;;;;;;;;;;;;;17.74;65.93;98181.53;2088516;28;20019;-63
2023/12/03 02:29:07;;;;;;;;;;;;;;;17.74;66.39;98181.53;2088525;28;20015;-65
2023/12/03 02:30:08;;;;;;;;;;;;;;;17.72;65.93;98183.59;2090360;28;19931;-64
2023/12/03 02:31:09;;;;;;;;;;;;;;;17.70;66.00;98193.72;2087899;28;19928;-65
2023/12/03 02:32:10;;;;;;;;;;;;;;;17.69;66.06;98192.06;2088624;28;20639;-64
2023/12/03 02:33:11;;;;;;;;;;;;;;;17.71;66.07;98195.34;2090791;28;20023;-63
2023/12/03 02:34:14;;;;;;;;;;;;;;;17.69;66.02;98194.72;2088768;28;20054;-65
2023/12/03 02:35:15;;;;;;;;;;;;;;;17.68;66.63;98190.41;2088845;28;20370;-62
2023/12/03 02:36:17;;;;;;;;;;;;;;;17.64;66.47;98195.38;2088691;28;19932;-62
2023/12/03 02:37:18;;;;;;;;;;;;;;;17.65;66.16;98199.69;2088490;28;19925;-62
2023/12/03 02:38:22;;;;;;;;;;;;;;;17.62;66.16;98192.88;2086901;28;19970;-64
2023/12/03 02:39:22;;;;;;;;;;;;;;;17.68;66.57;98201.16;2087942;28;19924;-64
2023/12/03 02:40:23;;;;;;;;;;;;;;;17.67;66.11;98188.78;2088517;28;19924;-62
2023/12/03 02:41:25;;;;;;;;;;;;;;;17.62;66.84;98198.25;2087323;28;19924;-63
2023/12/03 02:42:25;;;;;;;;;;;;;;;17.60;66.41;98189.59;2089845;28;19955;-64
2023/12/03 02:43:27;;;;;;;;;;;;;;;17.57;66.28;98198.03;2090087;28;19929;-63
2023/12/03 02:44:27;;;;;;;;;;;;;;;17.58;66.43;98189.00;2087429;28;19951;-64
2023/12/03 02:45:28;;;;;;;;;;;;;;;17.55;66.50;98197.44;2086996;28;20020;-63
2023/12/03 02:46:30;;;;;;;;;;;;;;;17.54;66.40;98195.78;2089583;28;19929;-64
2023/12/03 02:47:30;;;;;;;;;;;;;;;17.55;66.78;98205.50;2088877;28;19925;-63
2023/12/03 02:48:32;;;;;;;;;;;;;;;17.55;66.86;98201.97;2086032;28;19933;-63
2023/12/03 02:49:33;;;;;;;;;;;;;;;17.53;67.06;98204.06;2091295;28;20340;-64
2023/12/03 02:50:34;;;;;;;;;;;;;;;17.52;66.60;98202.38;2088610;28;19928;-64
2023/12/03 02:51:35;;;;;;;;;;;;;;;17.47;66.66;98202.16;2093255;28;19948;-62
2023/12/03 02:52:36;;;;;;;;;;;;;;;17.49;66.83;98208.16;2088767;28;20307;-63
2023/12/03 02:53:39;;;;;;;;;;;;;;;17.47;66.89;98202.16;2088796;28;20027;-64
2023/12/03 02:54:39;;;;;;;;;;;;;;;17.50;66.63;98209.84;2092084;28;20307;-65
2023/12/03 02:55:41;;;;;;;;;;;;;;;17.49;66.73;98205.47;2091843;28;19975;-64
2023/12/03 02:56:42;;;;;;;;;;;;;;;17.49;67.03;98208.97;2090633;28;19932;-63
2023/12/03 02:57:44;;;;;;;;;;;;;;;17.49;67.19;98200.94;2090053;28;20469;-62
2023/12/03 02:58:44;;;;;;;;;;;;;;;17.47;66.89;98211.06;2089577;28;21350;-62
2023/12/03 02:59:46;;;;;;;;;;;;;;;17.45;66.78;98213.13;2089490;28;19929;-64
2023/12/03 03:00:47;;;;;;;;;;;;;;;17.42;66.46;98209.00;2090033;28;19967;-62
2023/12/03 03:01:49;;;;;;;;;;;;;;;17.43;66.90;98215.19;2091264;28;19960;-63
2023/12/03 03:02:49;;;;;;;;;;;;;;;17.42;67.24;98216.22;2091149;28;20411;-64
2023/12/03 03:03:51;;;;;;;;;;;;;;;17.42;66.92;98213.53;2091903;28;19924;-64
2023/12/03 03:04:52;;;;;;;;;;;;;;;17.43;67.09;98212.50;2090296;28;19932;-64
2023/12/03 03:05:53;;;;;;;;;;;;;;;17.41;67.19;98212.72;2090350;28;19928;-64
2023/12/03 03:06:54;;;;;;;;;;;;;;;17.38;66.93;98213.13;2091806;28;19947;-63
2023/12/03 03:07:56;;;;;;;;;;;;;;;17.38;66.85;98206.91;2088619;28;19925;-63
2023/12/03 03:08:58;;;;;;;;;;;;;;;17.42;67.34;98213.53;2089322;28;19928;-65
2023/12/03 03:09:58;;;;;;;;;;;;;;;17.39;67.00;98213.94;2090000;28;20023;-66
2023/12/03 03:11:00;;;;;;;;;;;;;;;17.39;66.84;98214.78;2091475;28;19932;-64
2023/12/03 03:12:01;;;;;;;;;;;;;;;17.38;66.95;98217.63;2088224;28;20405;-66
2023/12/03 03:13:03;;;;;;;;;;;;;;;17.39;67.28;98219.31;2091139;28;19932;-62
2023/12/03 03:14:04;;;;;;;;;;;;;;;17.40;67.13;98231.69;2091090;28;19925;-71
2023/12/03 03:15:05;;;;;;;;;;;;;;;17.39;67.17;98230.03;2087885;28;20622;-62
2023/12/03 03:16:07;;;;;;;;;;;;;;;17.39;67.20;98240.75;2087865;28;20465;-65
2023/12/03 03:17:08;;;;;;;;;;;;;;;17.37;67.20;98240.94;2086204;28;19950;-65
2023/12/03 03:18:09;;;;;;;;;;;;;;;17.36;67.16;98243.84;2089942;28;20050;-64
2023/12/03 03:19:10;;;;;;;;;;;;;;;17.37;66.84;98249.00;2088710;28;19963;-65
2023/12/03 03:20:11;;;;;;;;;;;;;;;17.38;66.95;98249.81;2089149;28;19928;-62
2023/12/03 03:21:13;;;;;;;;;;;;;;;17.38;67.26;98245.31;2091237;28;19932;-64
2023/12/03 03:22:14;;;;;;;;;;;;;;;17.36;67.08;98246.53;2088820;28;20319;-64
2023/12/03 03:23:16;;;;;;;;;;;;;;;17.36;67.22;98251.91;2087066;28;19980;-64
2023/12/03 03:24:18;;;;;;;;;;;;;;;17.36;67.24;98254.56;2087855;28;20024;-64
2023/12/03 03:25:19;;;;;;;;;;;;;;;17.37;66.90;98256.22;2086688;28;19928;-64
2023/12/03 03:26:21;;;;;;;;;;;;;;;17.36;67.25;98260.75;2088877;28;19982;-63
2023/12/03 03:27:22;;;;;;;;;;;;;;;17.36;67.39;98263.44;2089446;28;20395;-63
2023/12/03 03:28:23;;;;;;;;;;;;;;;17.37;67.34;98264.25;2090280;28;19924;-64
2023/12/03 03:29:24;;;;;;;;;;;;;;;17.36;67.06;98267.97;2089007;28;20465;-64
2023/12/03 03:30:26;;;;;;;;;;;;;;;17.33;67.29;98269.22;2086693;28;20313;-64
2023/12/03 03:31:27;;;;;;;;;;;;;;;17.33;67.13;98263.84;2087370;28;20514;-65
2023/12/03 03:32:28;;;;;;;;;;;;;;;17.32;67.31;98270.22;2091297;28;19924;-65
2023/12/03 03:33:29;;;;;;;;;;;;;;;17.31;67.13;98273.94;2085864;28;19939;-65
2023/12/03 03:34:31;;;;;;;;;;;;;;;17.32;67.06;98272.09;2087716;28;19935;-63
2023/12/03 03:35:33;;;;;;;;;;;;;;;17.31;67.33;98270.44;2090161;28;20071;-63
2023/12/03 03:36:34;;;;;;;;;;;;;;;17.33;66.84;98289.84;2088421;28;19935;-63
2023/12/03 03:37:35;;;;;;;;;;;;;;;17.34;66.82;98288.78;2088808;28;19928;-62
2023/12/03 03:38:37;;;;;;;;;;;;;;;17.33;67.28;98292.50;2088884;28;20664;-64
2023/12/03 03:39:39;;;;;;;;;;;;;;;17.31;67.26;98287.34;2087297;28;20407;-63
2023/12/03 03:40:40;;;;;;;;;;;;;;;17.29;67.12;98291.25;2089505;28;19929;-65
2023/12/03 03:41:41;;;;;;;;;;;;;;;17.31;67.28;98297.25;2089155;28;19925;-63
2023/12/03 03:42:43;;;;;;;;;;;;;;;17.29;67.35;98294.75;2086220;28;19968;-64
2023/12/03 03:43:43;;;;;;;;;;;;;;;17.29;66.89;98293.94;2091014;28;19982;-62
2023/12/03 03:44:45;;;;;;;;;;;;;;;17.29;67.39;98294.75;2088520;28;21067;-64
2023/12/03 03:45:45;;;;;;;;;;;;;;;17.30;66.81;98290.22;2089023;28;20001;-64
2023/12/03 03:46:47;;;;;;;;;;;;;;;17.30;66.97;98295.56;2088604;28;20307;-63
2023/12/03 03:47:48;;;;;;;;;;;;;;;17.30;66.99;98295.56;2089640;28;19928;-64
2023/12/03 03:48:50;;;;;;;;;;;;;;;17.28;67.23;98293.13;2085756;28;19924;-63
2023/12/03 03:49:50;;;;;;;;;;;;;;;17.25;67.38;98293.53;2089588;28;20303;-65
2023/12/03 03:50:52;;;;;;;;;;;;;;;17.25;67.38;98298.06;2086425;28;20019;-63
2023/12/03 03:51:54;;;;;;;;;;;;;;;17.26;67.03;98299.69;2091383;28;19932;-63
2023/12/03 03:52:55;;;;;;;;;;;;;;;17.26;67.38;98299.69;2087645;28;19944;-64
2023/12/03 03:53:56;;;;;;;;;;;;;;;17.24;67.81;98299.06;2088785;28;19964;-64
2023/12/03 03:54:59;;;;;;;;;;;;;;;17.27;67.44;98306.69;2090426;28;19950;-64
2023/12/03 03:56:05;;;;;;;;;;;;;;;17.25;67.15;98308.78;2089625;28;19928;-65
2023/12/03 03:57:07;;;;;;;;;;;;;;;17.24;67.61;98307.09;2088038;28;19933;-65
2023/12/03 03:58:07;;;;;;;;;;;;;;;17.26;67.52;98313.09;2088820;28;19933;-64
2023/12/03 03:59:09;;;;;;;;;;;;;;;17.24;67.39;98312.47;2088314;28;19928;-64
2023/12/03 04:00:11;;;;;;;;;;;;;;;17.23;67.65;98308.97;2088265;28;20563;-65
2023/12/03 04:01:13;;;;;;;;;;;;;;;17.22;67.50;98319.88;2090292;28;20467;-64
2023/12/03 04:02:14;;;;;;;;;;;;;;;17.22;67.40;98318.06;2087103;28;19925;-63
2023/12/03 04:03:16;;;;;;;;;;;;;;;17.23;67.46;98317.00;2085410;28;19933;-63
2023/12/03 04:04:17;;;;;;;;;;;;;;;17.23;67.38;98319.69;2087713;28;20435;-64
2023/12/03 04:05:19;;;;;;;;;;;;;;;17.21;67.67;98324.41;2089635;28;20528;-65
2023/12/03 04:06:20;;;;;;;;;;;;;;;17.19;67.54;98335.34;2087978;28;23854;-64
2023/12/03 04:07:21;;;;;;;;;;;;;;;17.18;67.47;98322.97;2088625;28;19979;-65
2023/12/03 04:08:22;;;;;;;;;;;;;;;17.19;67.42;98321.97;2088358;28;19932;-64
2023/12/03 04:09:24;;;;;;;;;;;;;;;17.22;67.23;98330.59;2087541;28;20590;-64
2023/12/03 04:10:26;;;;;;;;;;;;;;;17.19;67.09;98332.69;2088132;28;20441;-64
2023/12/03 04:11:27;;;;;;;;;;;;;;;17.16;67.57;98334.91;2088292;28;20439;-64
2023/12/03 04:12:28;;;;;;;;;;;;;;;17.16;67.58;98325.03;2086831;28;19933;-64
2023/12/03 04:13:30;;;;;;;;;;;;;;;17.18;67.60;98327.50;2085455;28;20010;-64
2023/12/03 04:14:30;;;;;;;;;;;;;;;17.17;67.02;98323.19;2086590;28;19928;-65
2023/12/03 04:15:32;;;;;;;;;;;;;;;17.16;67.39;98330.41;2088163;28;19929;-64
2023/12/03 04:16:33;;;;;;;;;;;;;;;17.20;67.15;98328.13;2086680;28;21819;-64
2023/12/03 04:17:35;;;;;;;;;;;;;;;17.19;67.17;98331.84;2088548;28;20067;-64
2023/12/03 04:18:36;;;;;;;;;;;;;;;17.18;67.21;98333.69;2087156;28;19936;-62
2023/12/03 04:19:37;;;;;;;;;;;;;;;17.19;67.39;98335.34;2087097;28;19940;-64
2023/12/03 04:20:38;;;;;;;;;;;;;;;17.20;67.11;98328.13;2086906;28;19971;-63
2023/12/03 04:21:39;;;;;;;;;;;;;;;17.19;67.46;98339.91;2089445;28;19928;-64
2023/12/03 04:22:41;;;;;;;;;;;;;;;17.16;67.12;98337.59;2088201;28;20077;-63
2023/12/03 04:23:42;;;;;;;;;;;;;;;17.13;67.58;98344.22;2088078;28;19968;-65
2023/12/03 04:24:45;;;;;;;;;;;;;;;17.12;67.42;98331.81;2086346;28;19932;-64
2023/12/03 04:25:47;;;;;;;;;;;;;;;17.14;67.72;98340.50;2089934;28;19929;-63
2023/12/03 04:26:49;;;;;;;;;;;;;;;17.16;67.19;98340.28;2085533;28;20026;-65
2023/12/03 04:27:50;;;;;;;;;;;;;;;17.15;67.46;98344.00;2089013;28;19925;-63
2023/12/03 04:28:52;;;;;;;;;;;;;;;17.16;67.12;98349.16;2087199;28;19960;-65
2023/12/03 04:29:53;;;;;;;;;;;;;;;17.11;67.44;98340.91;2088579;28;20015;-63
2023/12/03 04:30:53;;;;;;;;;;;;;;;17.12;67.44;98337.19;2089590;28;20370;-63
2023/12/03 04:31:55;;;;;;;;;;;;;;;17.12;67.52;98341.72;2083199;28;21755;-62
2023/12/03 04:32:56;;;;;;;;;;;;;;;17.09;67.06;98342.94;2087675;28;19928;-63
2023/12/03 04:33:57;;;;;;;;;;;;;;;17.11;67.47;98351.63;2091254;28;20010;-64
2023/12/03 04:34:58;;;;;;;;;;;;;;;17.12;67.09;98353.25;2088244;28;20411;-63
2023/12/03 04:36:00;;;;;;;;;;;;;;;17.10;67.53;98355.31;2086697;28;19932;-63
2023/12/03 04:37:02;;;;;;;;;;;;;;;17.09;67.70;98358.19;2087504;28;19977;-62
2023/12/03 04:38:03;;;;;;;;;;;;;;;17.10;67.54;98355.31;2089087;28;20361;-66
2023/12/03 04:39:06;;;;;;;;;;;;;;;17.09;67.31;98350.16;2086714;28;19977;-63
2023/12/03 04:40:09;;;;;;;;;;;;;;;17.08;67.77;98362.75;2089519;28;19929;-64
2023/12/03 04:41:11;;;;;;;;;;;;;;;17.08;67.38;98362.75;2087389;28;19932;-63
2023/12/03 04:42:13;;;;;;;;;;;;;;;17.08;67.89;98357.38;2090199;28;19967;-64
2023/12/03 04:43:14;;;;;;;;;;;;;;;17.06;67.70;98362.09;2087573;28;19932;-65
2023/12/03 04:44:16;;;;;;;;;;;;;;;17.05;67.52;98368.50;2088358;28;20006;-63
2023/12/03 04:45:20;;;;;;;;;;;;;;;17.07;67.47;98365.59;2085986;28;19936;-64
2023/12/03 04:46:21;;;;;;;;;;;;;;;17.06;67.96;98363.97;2088654;28;19929;-63
2023/12/03 04:47:22;;;;;;;;;;;;;;;17.04;67.53;98371.38;2088369;28;19935;-64
2023/12/03 04:48:23;;;;;;;;;;;;;;;17.05;67.71;98371.19;2089476;28;19932;-65
2023/12/03 04:49:25;;;;;;;;;;;;;;;17.03;67.71;98381.25;2087849;28;20140;-63
2023/12/03 04:50:26;;;;;;;;;;;;;;;17.04;67.55;98380.22;2088651;28;20889;-62
2023/12/03 04:51:28;;;;;;;;;;;;;;;17.02;67.34;98378.78;2089416;28;19986;-64
2023/12/03 04:52:28;;;;;;;;;;;;;;;17.04;67.61;98379.41;2087529;28;19989;-62
2023/12/03 04:53:30;;;;;;;;;;;;;;;17.06;67.30;98382.72;2089216;28;19933;-64
2023/12/03 04:54:30;;;;;;;;;;;;;;;17.01;67.39;98383.31;2087455;28;19943;-62
2023/12/03 04:55:32;;;;;;;;;;;;;;;16.98;67.59;98384.53;2088430;28;20856;-65
2023/12/03 04:56:34;;;;;;;;;;;;;;;17.03;67.48;98378.59;2089235;28;19932;-63
2023/12/03 04:57:35;;;;;;;;;;;;;;;17.05;67.37;98381.91;2083957;28;19928;-64
2023/12/03 04:58:37;;;;;;;;;;;;;;;16.98;68.02;98384.53;2088040;28;19928;-64
2023/12/03 04:59:38;;;;;;;;;;;;;;;16.96;67.59;98386.56;2087288;28;19978;-63
2023/12/03 05:00:38;;;;;;;;;;;;;;;17.01;67.75;98388.66;2087365;28;19928;-62
2023/12/03 05:01:40;;;;;;;;;;;;;;;17.00;67.70;98391.56;2089706;28;20057;-64
2023/12/03 05:02:41;;;;;;;;;;;;;;;16.98;67.73;98394.41;2088151;28;19971;-65
2023/12/03 05:03:43;;;;;;;;;;;;;;;16.99;67.52;98396.06;2086884;28;20295;-63
2023/12/03 05:04:43;;;;;;;;;;;;;;;17.01;67.52;98394.03;2089319;28;20310;-65
2023/12/03 05:05:45;;;;;;;;;;;;;;;17.00;67.62;98391.56;2090052;28;19967;-66
2023/12/03 05:06:45;;;;;;;;;;;;;;;16.98;67.72;98405.13;2091611;28;20358;-65
2023/12/03 05:07:47;;;;;;;;;;;;;;;16.98;67.98;98405.13;2087970;28;19989;-66
2023/12/03 05:08:48;;;;;;;;;;;;;;;16.98;67.73;98399.78;2086660;28;19998;-64
2023/12/03 05:09:49;;;;;;;;;;;;;;;16.99;67.71;98409.47;2088815;28;19936;-64
2023/12/03 05:10:50;;;;;;;;;;;;;;;16.98;67.85;98399.78;2089270;28;19935;-65
2023/12/03 05:11:53;;;;;;;;;;;;;;;16.96;67.53;98399.97;2088413;28;19959;-65
2023/12/03 05:12:54;;;;;;;;;;;;;;;16.96;68.00;98412.53;2088770;28;19929;-64
2023/12/03 05:13:56;;;;;;;;;;;;;;;16.96;67.58;98413.38;2088829;28;20649;-64
2023/12/03 05:14:56;;;;;;;;;;;;;;;16.96;67.83;98409.84;2087738;28;20446;-65
2023/12/03 05:15:58;;;;;;;;;;;;;;;16.95;67.98;98409.03;2089190;28;19928;-65
2023/12/03 05:16:59;;;;;;;;;;;;;;;16.95;67.82;98410.91;2089469;28;19928;-64
2023/12/03 05:18:00;;;;;;;;;;;;;;;16.94;67.95;98414.63;2087503;28;20706;-65
2023/12/03 05:19:01;;;;;;;;;;;;;;;16.93;68.15;98420.97;2087760;28;20035;-66
2023/12/03 05:20:04;;;;;;;;;;;;;;;16.92;67.79;98417.47;2091688;28;19928;-64